This is the latest recevied weather packets stored in our database for station/object KC8PTQ. If no packets are shown the sender has not sent any weather packets the latest 1 day(s).
| Time | Temp. | Humidity | Pressure | Rain* | Wind** | Luminosity | Snow |
|---|---|---|---|---|---|---|---|
| 1778096135 | 12.78° C | 56% | 1013.4 hPa | 0 mm | - | 134 W/m² | - |
| 1778094922 | 12.78° C | 58% | 1013.2 hPa | 0 mm | - | 120 W/m² | - |
| 1778094618 | 12.78° C | 55% | 1013 hPa | 0 mm | - | 121 W/m² | - |
| 1778093406 | 13.33° C | 54% | 1013.5 hPa | 0 mm | - | 302 W/m² | - |
| 1778091582 | 15° C | 51% | 1013 hPa | 0 mm | - | 173 W/m² | - |
| 1778091280 | 14.44° C | 53% | 1013.2 hPa | 0 mm | - | 341 W/m² | - |
| 1778088854 | 13.89° C | 55% | 1013 hPa | 0 mm | - | 300 W/m² | - |
| 1778087945 | 13.33° C | 56% | 1013 hPa | 0 mm | - | 138 W/m² | - |
| 1778083994 | 12.78° C | 65% | 1013 hPa | 0 mm | - | 244 W/m² | - |
| 1778083692 | 12.22° C | 73% | 1012.8 hPa | 0 mm | - | 296 W/m² | - |
| 1778081353 | 11.67° C | 71% | 1012.5 hPa | 0 mm | - | 262 W/m² | - |
| 1778080445 | 11.11° C | 72% | 1012.2 hPa | 0 mm | - | 313 W/m² | - |
| 1778078021 | 10° C | 82% | 1011.9 hPa | 0 mm | - | 179 W/m² | - |
| 1778077115 | 9.44° C | 82% | 1011.8 hPa | 0 mm | - | 193 W/m² | - |
| 1778075297 | 8.33° C | 90% | 1011.9 hPa | 0 mm | - | 128 W/m² | - |
| 1778074084 | 7.78° C | 95% | 1011.7 hPa | 0 mm | - | 87 W/m² | - |
| 1778073781 | 7.78° C | 96% | 1011.8 hPa | 0 mm | - | 74 W/m² | - |
| 1778073175 | 7.78° C | 97% | 1011.2 hPa | 0 mm | - | 71 W/m² | - |
| 1778072872 | 7.78° C | 98% | 1011.2 hPa | 0 mm | - | 57 W/m² | - |
| 1778072569 | 7.78° C | 98% | 1011.1 hPa | 0 mm | - | 74 W/m² | - |
| 1778072267 | 7.22° C | 99% | 1011.2 hPa | 0 mm | - | 96 W/m² | - |
| 1778071663 | 7.22° C | 99% | 1011.3 hPa | 0 mm | - | 50 W/m² | - |
| 1778071360 | 7.22° C | 99% | 1010.9 hPa | 0 mm | - | 50 W/m² | - |
| 1778070756 | 7.22° C | 99% | 1010.7 hPa | 0 mm | - | 94 W/m² | - |
| 1778068335 | 7.22° C | 99% | 1010.4 hPa | 0 mm | - | 34 W/m² | - |
* Rain latest hour (hover to see other rain measurements)
** Current wind speed in m/s (hover to see current wind gust speed)